createdAt,value
2023-03-29T00:00:23.770Z,32.60
2023-03-29T00:03:21.812Z,27.30
2023-03-29T00:06:03.360Z,30.40
2023-03-29T00:08:55.439Z,32.00
2023-03-29T00:11:47.574Z,28.50
2023-03-29T00:14:39.674Z,32.60
2023-03-29T00:17:31.853Z,31.60
2023-03-29T00:20:23.926Z,37.10
2023-03-29T00:22:58.522Z,32.60
2023-03-29T00:25:50.628Z,35.70
2023-03-29T00:28:42.640Z,39.00
2023-03-29T00:31:34.974Z,38.00
2023-03-29T00:34:09.879Z,29.10
2023-03-29T00:37:01.845Z,36.00
2023-03-29T00:39:54.253Z,29.90
2023-03-29T00:42:47.780Z,30.50
2023-03-29T00:45:40.174Z,36.20
2023-03-29T00:48:25.036Z,33.60
2023-03-29T00:51:10.059Z,31.60
2023-03-29T00:54:05.896Z,28.00
2023-03-29T00:56:58.136Z,27.00
2023-03-29T00:59:52.935Z,24.00
2023-03-29T01:02:45.669Z,26.00
2023-03-29T01:05:41.751Z,24.80
2023-03-29T01:08:37.954Z,25.30
2023-03-29T01:11:36.887Z,22.10
2023-03-29T01:14:35.272Z,26.40
2023-03-29T01:17:27.275Z,28.50
2023-03-29T01:20:23.109Z,27.50
2023-03-29T01:23:33.756Z,31.20
2023-03-29T01:26:37.378Z,26.60
2023-03-29T01:29:34.485Z,28.50
2023-03-29T01:32:34.872Z,28.80
2023-03-29T01:35:32.836Z,28.80
2023-03-29T01:38:28.943Z,27.00
2023-03-29T01:41:21.227Z,26.30
2023-03-29T01:44:18.245Z,28.80
2023-03-29T01:47:19.197Z,27.80
2023-03-29T01:50:18.253Z,30.00
2023-03-29T01:53:15.204Z,26.40
2023-03-29T01:56:11.625Z,29.80
2023-03-29T01:59:09.242Z,27.50
2023-03-29T02:01:50.417Z,26.20
2023-03-29T02:04:48.017Z,22.30
2023-03-29T02:07:42.524Z,26.20
2023-03-29T02:10:36.800Z,14.40
2023-03-29T02:13:27.780Z,20.30
2023-03-29T02:16:20.398Z,21.60
2023-03-29T02:19:15.361Z,20.90
2023-03-29T02:22:10.681Z,19.80
2023-03-29T02:24:54.802Z,27.50
2023-03-29T02:27:47.216Z,28.40
2023-03-29T02:30:33.598Z,18.10
2023-03-29T02:33:31.251Z,24.90
2023-03-29T02:36:18.699Z,24.00
2023-03-29T02:39:15.336Z,18.10
2023-03-29T02:42:09.261Z,19.80
2023-03-29T02:45:03.401Z,25.70
2023-03-29T02:47:58.457Z,20.10
2023-03-29T02:50:55.049Z,22.50
2023-03-29T02:53:52.014Z,21.90
2023-03-29T02:56:49.275Z,29.50
2023-03-29T02:59:43.986Z,24.20
2023-03-29T03:02:27.765Z,23.90
2023-03-29T03:05:20.424Z,21.60
2023-03-29T03:08:14.583Z,26.20
2023-03-29T03:11:08.135Z,23.00
2023-03-29T03:14:00.245Z,18.20
2023-03-29T03:16:52.803Z,25.50
2023-03-29T03:19:27.585Z,28.00
2023-03-29T03:22:19.610Z,27.10
2023-03-29T03:25:12.043Z,25.20
2023-03-29T03:28:05.011Z,27.30
2023-03-29T03:30:57.448Z,33.20
2023-03-29T03:33:49.605Z,30.50
2023-03-29T03:36:41.626Z,32.80
2023-03-29T03:39:33.644Z,31.10
2023-03-29T03:42:28.137Z,35.80
2023-03-29T03:45:02.933Z,28.10
2023-03-29T03:47:55.080Z,26.50
2023-03-29T03:50:51.408Z,26.30
2023-03-29T03:53:43.447Z,27.30
2023-03-29T03:56:35.652Z,25.70
2023-03-29T03:59:10.842Z,23.20
2023-03-29T04:02:02.891Z,25.10
2023-03-29T04:04:37.650Z,22.50
2023-03-29T04:07:29.751Z,21.80
2023-03-29T04:10:22.633Z,24.90
2023-03-29T04:13:14.640Z,19.70
2023-03-29T04:15:54.170Z,20.10
2023-03-29T04:18:46.468Z,36.20
2023-03-29T04:21:38.586Z,25.00
2023-03-29T04:24:30.665Z,26.10
2023-03-29T04:27:22.777Z,27.90
2023-03-29T04:30:15.790Z,26.20
2023-03-29T04:33:07.919Z,30.30
2023-03-29T04:36:00.603Z,28.20
2023-03-29T04:38:47.430Z,25.40
2023-03-29T04:41:40.344Z,26.90
2023-03-29T04:44:16.158Z,26.70
2023-03-29T04:46:55.527Z,21.90
2023-03-29T04:49:47.757Z,25.70
2023-03-29T04:52:39.994Z,25.70
2023-03-29T04:55:32.038Z,24.90
2023-03-29T04:58:27.116Z,27.00
2023-03-29T05:01:11.467Z,24.00
2023-03-29T05:04:04.798Z,25.70
2023-03-29T05:06:57.402Z,34.00
2023-03-29T05:09:49.493Z,40.00
2023-03-29T05:12:41.484Z,34.20
2023-03-29T05:15:33.620Z,27.70
2023-03-29T05:18:25.642Z,36.80
2023-03-29T05:21:18.479Z,30.60
2023-03-29T05:24:10.974Z,29.00
2023-03-29T05:26:52.670Z,30.50
2023-03-29T05:29:44.793Z,32.80
2023-03-29T05:32:39.071Z,45.80
2023-03-29T05:35:31.391Z,41.20
2023-03-29T05:38:23.460Z,42.70
2023-03-29T05:41:16.486Z,42.00
2023-03-29T05:44:08.605Z,37.90
2023-03-29T05:46:43.404Z,36.90
2023-03-29T05:49:19.129Z,34.30
2023-03-29T05:52:11.621Z,34.70
2023-03-29T05:55:04.224Z,33.60
2023-03-29T05:57:46.620Z,35.10
2023-03-29T06:00:39.148Z,36.40
2023-03-29T06:03:25.157Z,31.80
2023-03-29T06:06:17.557Z,34.30
2023-03-29T06:08:49.454Z,32.00
2023-03-29T06:11:22.261Z,40.90
2023-03-29T06:14:14.566Z,40.80
2023-03-29T06:16:51.720Z,45.90
2023-03-29T06:19:44.330Z,46.50
2023-03-29T06:22:36.789Z,50.30
2023-03-29T06:25:19.674Z,37.00
2023-03-29T06:28:12.425Z,32.80
2023-03-29T06:31:05.182Z,34.20
2023-03-29T06:33:53.785Z,35.40
2023-03-29T06:36:45.823Z,28.50
2023-03-29T06:39:37.846Z,28.00
2023-03-29T06:42:21.691Z,33.50
2023-03-29T06:45:15.971Z,29.30
2023-03-29T06:48:09.053Z,24.10
2023-03-29T06:50:40.997Z,31.80
2023-03-29T06:53:32.954Z,26.40
2023-03-29T06:56:09.797Z,33.00
2023-03-29T06:59:01.965Z,28.30
2023-03-29T07:01:55.117Z,22.70
2023-03-29T07:04:47.527Z,25.00
2023-03-29T07:07:22.642Z,29.10
2023-03-29T07:10:15.010Z,22.80
2023-03-29T07:13:08.781Z,25.90
2023-03-29T07:15:44.950Z,21.60
2023-03-29T07:18:37.069Z,22.10
2023-03-29T07:21:29.611Z,18.30
2023-03-29T07:24:22.601Z,19.50
2023-03-29T07:27:14.687Z,17.50
2023-03-29T07:30:11.196Z,20.10
2023-03-29T07:32:46.343Z,16.20
2023-03-29T07:35:21.695Z,17.40
2023-03-29T07:37:54.954Z,20.90
2023-03-29T07:40:31.026Z,15.60
2023-03-29T07:43:24.031Z,15.80
2023-03-29T07:46:16.010Z,14.20
2023-03-29T07:49:08.668Z,15.40
2023-03-29T07:52:01.433Z,11.90
2023-03-29T07:54:53.412Z,13.50
2023-03-29T07:57:32.735Z,10.70
2023-03-29T08:00:25.765Z,12.50
2023-03-29T08:03:01.966Z,10.70
2023-03-29T08:05:54.307Z,10.90
2023-03-29T08:08:46.408Z,11.70
2023-03-29T08:11:28.956Z,10.00
2023-03-29T08:14:06.765Z,11.10
2023-03-29T08:16:58.925Z,5.80
2023-03-29T08:19:51.701Z,10.40
2023-03-29T08:22:44.737Z,12.30
2023-03-29T08:25:37.318Z,10.90
2023-03-29T08:28:11.858Z,10.50
2023-03-29T08:30:46.764Z,11.90
2023-03-29T08:33:38.793Z,11.40
2023-03-29T08:36:30.908Z,10.60
2023-03-29T08:39:23.050Z,8.50
2023-03-29T08:42:34.235Z,9.50
2023-03-29T08:45:37.001Z,10.30
2023-03-29T08:48:17.690Z,8.70
2023-03-29T08:51:19.030Z,7.80
2023-03-29T08:53:54.894Z,13.90
2023-03-29T08:56:52.295Z,7.80
2023-03-29T08:59:46.737Z,5.80
2023-03-29T09:02:27.734Z,4.60
2023-03-29T09:05:26.761Z,5.30
2023-03-29T09:08:20.852Z,4.50
2023-03-29T09:11:33.701Z,7.50
2023-03-29T09:14:48.985Z,5.30
2023-03-29T09:17:49.712Z,3.60
2023-03-29T09:20:35.742Z,3.20
2023-03-29T09:23:44.375Z,3.70
2023-03-29T09:26:31.110Z,4.40
2023-03-29T09:29:34.066Z,3.50
2023-03-29T09:32:32.989Z,4.00
2023-03-29T09:35:32.234Z,6.10
2023-03-29T09:38:24.471Z,4.80
2023-03-29T09:41:24.956Z,4.40
2023-03-29T09:44:30.180Z,5.90
2023-03-29T09:50:05.498Z,3.90
2023-03-29T09:52:57.801Z,6.50
2023-03-29T09:55:40.873Z,4.10
2023-03-29T09:58:33.185Z,5.10
2023-03-29T10:01:18.791Z,5.40
2023-03-29T10:04:01.576Z,4.60
2023-03-29T10:06:54.886Z,5.60
2023-03-29T10:09:47.987Z,11.00
2023-03-29T10:12:40.181Z,4.60
2023-03-29T10:15:33.385Z,5.60
2023-03-29T10:18:12.583Z,4.40
2023-03-29T10:21:02.593Z,5.20
2023-03-29T10:24:01.086Z,4.10
2023-03-29T10:26:55.849Z,4.40
2023-03-29T10:29:36.330Z,5.20
2023-03-29T10:32:33.413Z,3.50
2023-03-29T10:35:13.418Z,4.70
2023-03-29T10:37:52.988Z,4.10
2023-03-29T10:40:48.061Z,4.20
2023-03-29T10:43:29.450Z,4.60
2023-03-29T10:46:32.962Z,4.20
2023-03-29T10:49:27.017Z,4.80
2023-03-29T10:51:58.906Z,4.50
2023-03-29T10:54:31.223Z,4.10
2023-03-29T10:57:10.432Z,4.70
2023-03-29T10:59:53.024Z,4.40
2023-03-29T11:03:07.201Z,4.60
2023-03-29T11:05:55.688Z,4.40
2023-03-29T11:08:57.398Z,3.60
2023-03-29T11:12:15.773Z,5.10
2023-03-29T11:18:26.238Z,3.90
2023-03-29T11:21:28.831Z,3.50
2023-03-29T11:24:29.906Z,3.30
2023-03-29T11:27:33.792Z,3.40
2023-03-29T11:30:32.083Z,3.50
2023-03-29T11:33:38.638Z,3.90
2023-03-29T11:36:44.581Z,3.60
2023-03-29T11:39:50.891Z,3.20
2023-03-29T11:42:48.944Z,4.90
2023-03-29T11:45:46.925Z,3.00
2023-03-29T11:48:42.948Z,4.40
2023-03-29T11:51:39.270Z,3.60
2023-03-29T11:54:35.926Z,4.40
2023-03-29T11:57:32.074Z,3.90
2023-03-29T12:00:28.505Z,3.50
2023-03-29T12:03:32.247Z,3.40
2023-03-29T12:06:09.288Z,3.80
2023-03-29T12:09:06.805Z,4.50
2023-03-29T12:12:04.445Z,5.70
2023-03-29T12:14:54.171Z,4.30
2023-03-29T12:17:50.172Z,3.90
2023-03-29T12:20:47.641Z,6.00
2023-03-29T12:23:42.405Z,3.80
2023-03-29T12:26:56.572Z,5.70
2023-03-29T12:30:04.626Z,3.80
2023-03-29T12:33:19.721Z,3.50
2023-03-29T12:36:31.568Z,3.90
2023-03-29T12:39:25.597Z,4.70
2023-03-29T12:42:19.739Z,4.80
2023-03-29T12:45:20.248Z,4.30
2023-03-29T12:48:19.819Z,6.10
2023-03-29T12:51:16.151Z,4.20
2023-03-29T12:54:11.237Z,5.30
2023-03-29T12:57:00.261Z,5.10
2023-03-29T12:59:52.442Z,4.10
2023-03-29T13:02:38.300Z,5.80
2023-03-29T13:05:39.519Z,3.80
2023-03-29T13:08:36.392Z,3.60
2023-03-29T13:11:32.640Z,3.40
2023-03-29T13:14:30.960Z,4.50
2023-03-29T13:17:45.150Z,6.10
2023-03-29T13:20:47.354Z,5.70
2023-03-29T13:23:46.752Z,4.30
2023-03-29T13:26:43.746Z,4.20
2023-03-29T13:30:04.559Z,4.20
2023-03-29T13:33:18.055Z,6.10
2023-03-29T13:36:16.903Z,6.10
2023-03-29T13:38:54.505Z,4.70
2023-03-29T13:41:48.802Z,4.50
2023-03-29T13:44:41.280Z,4.40
2023-03-29T13:47:54.942Z,4.10
2023-03-29T13:51:00.882Z,3.70
2023-03-29T13:53:50.548Z,4.70
2023-03-29T13:56:51.505Z,5.70
2023-03-29T13:59:50.767Z,5.00
2023-03-29T14:02:49.680Z,4.80
2023-03-29T14:05:48.957Z,3.20
2023-03-29T14:08:43.045Z,4.00
2023-03-29T14:11:36.439Z,3.30
2023-03-29T14:14:18.798Z,4.30
2023-03-29T14:17:14.307Z,3.60
2023-03-29T14:20:10.095Z,4.90
2023-03-29T14:22:45.445Z,4.10
2023-03-29T14:25:27.288Z,5.50
2023-03-29T14:28:28.188Z,6.10
2023-03-29T14:31:25.140Z,5.50
2023-03-29T14:34:12.963Z,3.80
2023-03-29T14:37:05.642Z,4.80
2023-03-29T14:39:59.560Z,5.80
2023-03-29T14:42:42.455Z,4.30
2023-03-29T14:45:34.891Z,4.10
2023-03-29T14:48:25.967Z,4.40
2023-03-29T14:51:18.302Z,4.00
2023-03-29T14:54:07.551Z,3.80
2023-03-29T14:56:52.368Z,4.50
2023-03-29T14:59:42.030Z,3.10
2023-03-29T15:02:31.170Z,3.60
2023-03-29T15:05:32.551Z,3.90
2023-03-29T15:08:19.227Z,4.40
2023-03-29T15:11:18.453Z,4.00
2023-03-29T15:14:16.042Z,3.90
2023-03-29T15:17:31.306Z,4.00
2023-03-29T15:20:21.392Z,6.20
2023-03-29T15:23:23.906Z,5.20
2023-03-29T15:26:21.650Z,5.00
2023-03-29T15:29:17.284Z,4.10
2023-03-29T15:31:59.893Z,6.20
2023-03-29T15:35:00.873Z,5.90
2023-03-29T15:37:53.738Z,4.60
2023-03-29T15:40:41.049Z,5.40
2023-03-29T15:43:33.207Z,3.00
2023-03-29T15:46:25.481Z,6.70
2023-03-29T15:49:00.432Z,4.10
2023-03-29T15:51:32.134Z,4.50
2023-03-29T15:54:24.868Z,5.30
2023-03-29T15:57:18.580Z,4.80
2023-03-29T16:00:18.889Z,5.70
2023-03-29T16:02:54.364Z,4.60
2023-03-29T16:05:31.102Z,6.50
2023-03-29T16:08:13.999Z,6.10
2023-03-29T16:11:06.810Z,5.90
2023-03-29T16:13:41.493Z,4.80
2023-03-29T16:16:34.823Z,6.40
2023-03-29T16:19:27.662Z,8.20
2023-03-29T16:22:19.728Z,6.10
2023-03-29T16:25:15.777Z,7.40
2023-03-29T16:28:09.050Z,7.20
2023-03-29T16:30:52.352Z,6.10
2023-03-29T16:33:44.651Z,5.80
2023-03-29T16:36:36.647Z,7.10
2023-03-29T16:39:28.783Z,7.70
2023-03-29T16:42:20.900Z,4.70
2023-03-29T16:45:16.072Z,5.10
2023-03-29T16:47:51.193Z,6.60
2023-03-29T16:50:43.462Z,7.10
2023-03-29T16:53:36.134Z,6.70
2023-03-29T16:56:28.828Z,5.10
2023-03-29T16:59:20.983Z,6.00
2023-03-29T17:02:13.471Z,4.80
2023-03-29T17:04:54.209Z,7.10
2023-03-29T17:07:46.825Z,5.00
2023-03-29T17:10:29.214Z,6.30
2023-03-29T17:13:23.786Z,6.30
2023-03-29T17:16:16.093Z,8.90
2023-03-29T17:19:08.303Z,12.30
2023-03-29T17:22:00.730Z,7.10
2023-03-29T17:24:43.857Z,9.50
2023-03-29T17:27:15.879Z,11.20
2023-03-29T17:30:09.956Z,10.70
2023-03-29T17:33:02.350Z,13.00
2023-03-29T17:35:37.063Z,22.10
2023-03-29T17:38:30.316Z,11.60
2023-03-29T17:41:22.838Z,10.70
2023-03-29T17:44:14.951Z,7.90
2023-03-29T17:47:07.093Z,7.70
2023-03-29T17:49:59.380Z,29.90
2023-03-29T17:52:51.672Z,8.10
2023-03-29T17:55:46.072Z,8.70
2023-03-29T17:58:38.247Z,8.10
2023-03-29T18:01:30.825Z,7.00
2023-03-29T18:04:23.122Z,4.60
2023-03-29T18:07:15.397Z,5.30
2023-03-29T18:10:09.234Z,7.00
2023-03-29T18:13:01.375Z,8.30
2023-03-29T18:15:57.234Z,5.40
2023-03-29T18:18:41.580Z,6.50
2023-03-29T18:21:19.497Z,5.70
2023-03-29T18:23:57.381Z,35.70
2023-03-29T18:26:41.236Z,21.40
2023-03-29T18:29:33.713Z,9.50
2023-03-29T18:32:25.887Z,9.90
2023-03-29T18:37:29.621Z,12.00
2023-03-29T18:40:24.744Z,8.90
2023-03-29T18:42:57.388Z,10.80
2023-03-29T18:45:32.367Z,10.80
2023-03-29T18:48:09.989Z,12.00
2023-03-29T18:51:03.808Z,14.00
2023-03-29T18:53:48.343Z,13.20
2023-03-29T18:56:40.332Z,14.50
2023-03-29T18:59:32.503Z,12.20
2023-03-29T19:02:24.714Z,14.70
2023-03-29T19:05:09.809Z,14.90
2023-03-29T19:08:02.750Z,18.80
2023-03-29T19:10:39.178Z,18.40
2023-03-29T19:13:31.321Z,18.00
2023-03-29T19:16:23.381Z,20.20
2023-03-29T19:19:15.542Z,29.90
2023-03-29T19:22:07.798Z,23.80
2023-03-29T19:24:59.718Z,23.40
2023-03-29T19:27:51.730Z,18.30
2023-03-29T19:30:43.782Z,20.00
2023-03-29T19:33:35.748Z,17.40
2023-03-29T19:36:28.189Z,16.60
2023-03-29T19:39:20.827Z,16.60
2023-03-29T19:41:52.913Z,18.20
2023-03-29T19:44:44.870Z,18.50
2023-03-29T19:47:37.302Z,16.20
2023-03-29T19:50:29.649Z,18.60
2023-03-29T19:53:23.029Z,16.00
2023-03-29T19:56:15.847Z,19.20
2023-03-29T19:58:57.845Z,21.50
2023-03-29T20:01:51.760Z,23.00
2023-03-29T20:04:24.608Z,23.90
2023-03-29T20:06:59.718Z,24.80
2023-03-29T20:09:37.689Z,30.40
2023-03-29T20:12:29.749Z,36.10
2023-03-29T20:15:25.549Z,35.50
2023-03-29T20:21:09.041Z,34.00
2023-03-29T20:23:41.595Z,35.70
2023-03-29T20:26:18.514Z,37.70
2023-03-29T20:29:11.409Z,40.10
2023-03-29T20:32:03.492Z,36.10
2023-03-29T20:34:55.631Z,39.50
2023-03-29T20:37:47.626Z,26.80
2023-03-29T20:40:40.825Z,30.90
2023-03-29T20:43:37.789Z,25.60
2023-03-29T20:46:34.198Z,21.60
2023-03-29T20:49:26.105Z,20.90
2023-03-29T20:52:18.813Z,16.90
2023-03-29T20:55:00.498Z,15.40
2023-03-29T20:57:54.252Z,17.80
2023-03-29T21:00:46.857Z,14.30
2023-03-29T21:03:30.363Z,13.90
2023-03-29T21:06:24.431Z,14.00
2023-03-29T21:09:16.424Z,15.10
2023-03-29T21:12:08.970Z,20.00
2023-03-29T21:15:02.356Z,17.40
2023-03-29T21:17:54.499Z,18.80
2023-03-29T21:20:29.859Z,16.10
2023-03-29T21:23:22.036Z,24.60
2023-03-29T21:26:14.142Z,20.90
2023-03-29T21:29:06.917Z,21.70
2023-03-29T21:31:41.972Z,23.70
2023-03-29T21:34:16.235Z,17.60
2023-03-29T21:37:08.277Z,22.00
2023-03-29T21:40:00.543Z,19.00
2023-03-29T21:42:52.600Z,20.30
2023-03-29T21:45:44.629Z,21.70
2023-03-29T21:48:37.014Z,19.40
2023-03-29T21:51:11.969Z,25.70
2023-03-29T21:54:04.171Z,19.00
2023-03-29T21:56:56.289Z,17.80
2023-03-29T21:59:48.292Z,19.40
2023-03-29T22:02:25.663Z,16.60
2023-03-29T22:05:17.819Z,17.20
2023-03-29T22:08:10.798Z,17.10
2023-03-29T22:11:09.066Z,19.60
2023-03-29T22:13:54.181Z,19.40
2023-03-29T22:16:37.160Z,21.40
2023-03-29T22:19:29.299Z,17.20
2023-03-29T22:22:07.158Z,16.40
2023-03-29T22:24:59.191Z,14.50
2023-03-29T22:27:31.139Z,16.70
2023-03-29T22:30:23.404Z,16.10
2023-03-29T22:33:04.502Z,14.80
2023-03-29T22:35:57.357Z,16.30
2023-03-29T22:38:50.465Z,15.10
2023-03-29T22:41:43.010Z,13.40
2023-03-29T22:44:17.541Z,16.50
2023-03-29T22:47:09.692Z,14.90
2023-03-29T22:49:51.965Z,14.40
2023-03-29T22:52:43.984Z,11.10
2023-03-29T22:55:16.484Z,14.10
2023-03-29T22:58:08.771Z,12.30
2023-03-29T23:01:01.015Z,14.60
2023-03-29T23:03:53.087Z,11.40
2023-03-29T23:06:27.975Z,10.40
2023-03-29T23:09:20.072Z,10.80
2023-03-29T23:12:02.452Z,8.80
2023-03-29T23:14:55.768Z,11.90
2023-03-29T23:17:47.936Z,10.50
2023-03-29T23:20:40.728Z,9.90
2023-03-29T23:23:12.857Z,7.20
2023-03-29T23:26:05.394Z,10.80
2023-03-29T23:28:51.457Z,9.20
2023-03-29T23:31:44.255Z,12.30
2023-03-29T23:34:36.388Z,10.60
2023-03-29T23:37:28.359Z,11.80
2023-03-29T23:40:20.962Z,11.20
2023-03-29T23:43:13.525Z,8.20
2023-03-29T23:45:59.643Z,11.10
2023-03-29T23:48:53.171Z,10.70
2023-03-29T23:51:48.216Z,11.80
2023-03-29T23:54:40.233Z,8.50
2023-03-29T23:57:34.970Z,10.80
